Time;durP1;ratioP1;P1;durP2;ratioP2;P2;SDS_P1;SDS_P2;PMS_P1;PMS_P2;Temp;Humidity;BMP_temperature;BMP_pressure;BME280_temperature;BME280_humidity;BME280_pressure;Samples;Min_cycle;Max_cycle;Signal;HPM_P1;HPM_P2
2021/09/10 00:00:11;;;;;;;11.30;9.00;;;17.80;99.90;;;;;;6192162;23;20028;-91
2021/09/10 00:03:00;;;;;;;13.98;9.50;;;17.90;99.90;;;;;;6214605;23;20024;-91
2021/09/10 00:05:49;;;;;;;11.45;9.15;;;17.80;99.90;;;;;;6193928;23;20028;-89
2021/09/10 00:08:38;;;;;;;12.75;8.77;;;17.70;99.90;;;;;;6195864;23;20035;-90
2021/09/10 00:11:26;;;;;;;10.45;8.57;;;17.60;99.90;;;;;;6215934;23;20108;-89
2021/09/10 00:14:16;;;;;;;12.90;9.57;;;17.50;99.90;;;;;;6216339;23;20021;-91
2021/09/10 00:17:03;;;;;;;14.27;9.52;;;17.40;99.90;;;;;;6172872;23;20079;-88
2021/09/10 00:19:51;;;;;;;17.17;9.68;;;17.40;99.90;;;;;;6213132;23;20040;-90
2021/09/10 00:22:38;;;;;;;11.30;9.68;;;17.40;99.90;;;;;;6173697;23;20021;-91
2021/09/10 00:25:27;;;;;;;12.70;9.60;;;17.40;99.90;;;;;;6211722;23;20029;-89
2021/09/10 00:28:20;;;;;;;13.38;9.07;;;17.40;99.90;;;;;;6215928;23;20024;-88
2021/09/10 00:31:19;;;;;;;9.82;8.82;;;17.40;99.90;;;;;;6214353;23;20048;-92
2021/09/10 00:34:06;;;;;;;15.93;10.13;;;17.50;99.90;;;;;;6213399;23;20029;-90
2021/09/10 00:36:56;;;;;;;12.38;8.93;;;17.50;99.90;;;;;;6213333;23;20078;-92
2021/09/10 00:39:44;;;;;;;10.70;9.02;;;17.50;99.90;;;;;;6194698;23;20023;-91
2021/09/10 00:42:35;;;;;;;14.05;8.85;;;17.50;99.90;;;;;;6194776;23;20033;-89
2021/09/10 00:45:25;;;;;;;11.00;9.20;;;17.60;99.90;;;;;;6215957;23;20032;-91
2021/09/10 00:48:19;;;;;;;14.23;9.15;;;17.60;99.90;;;;;;6195128;23;20309;-87
2021/09/10 00:51:10;;;;;;;10.27;9.20;;;17.60;99.90;;;;;;6216364;22;20116;-89
2021/09/10 00:53:57;;;;;;;11.80;9.38;;;17.50;99.90;;;;;;6217224;23;20332;-91
2021/09/10 00:56:47;;;;;;;11.90;9.55;;;17.50;99.90;;;;;;6195458;23;20487;-91
2021/09/10 00:59:34;;;;;;;12.18;9.10;;;17.40;99.90;;;;;;6217905;23;20076;-89
2021/09/10 01:02:24;;;;;;;14.70;10.68;;;17.30;99.90;;;;;;6176778;23;20327;-89
2021/09/10 01:05:12;;;;;;;13.13;10.10;;;17.30;99.90;;;;;;6217925;23;20028;-89
2021/09/10 01:08:03;;;;;;;13.10;9.95;;;17.20;99.90;;;;;;6214654;23;20024;-91
2021/09/10 01:10:52;;;;;;;14.10;10.23;;;17.20;99.90;;;;;;6216404;23;20028;-90
2021/09/10 01:13:43;;;;;;;12.20;10.25;;;17.20;99.90;;;;;;6196175;23;20124;-91
2021/09/10 01:16:31;;;;;;;15.00;11.13;;;17.10;99.90;;;;;;6215368;23;20105;-90
2021/09/10 01:19:27;;;;;;;15.85;10.52;;;17.10;99.90;;;;;;6217038;23;20021;-90
2021/09/10 01:22:14;;;;;;;14.52;10.88;;;17.10;99.90;;;;;;6217065;23;20016;-91
2021/09/10 01:25:13;;;;;;;11.65;10.18;;;17.10;99.90;;;;;;6217903;23;20028;-91
2021/09/10 01:28:03;;;;;;;11.82;10.18;;;17.00;99.90;;;;;;6218143;23;20020;-89
2021/09/10 01:30:51;;;;;;;13.73;10.60;;;17.10;99.90;;;;;;6216626;23;20041;-91
2021/09/10 01:33:50;;;;;;;14.27;10.35;;;17.00;99.90;;;;;;6219370;22;20025;-89
2021/09/10 01:36:39;;;;;;;13.45;10.55;;;17.10;99.90;;;;;;6195886;23;20025;-92
2021/09/10 01:39:27;;;;;;;16.15;10.38;;;17.10;99.90;;;;;;6218421;22;20428;-92
2021/09/10 01:42:17;;;;;;;12.27;9.90;;;17.10;99.90;;;;;;6195337;23;20016;-92
2021/09/10 01:45:08;;;;;;;18.40;10.45;;;17.10;99.90;;;;;;6194901;23;20028;-91
2021/09/10 01:47:58;;;;;;;11.35;10.05;;;17.10;99.90;;;;;;6195059;23;20028;-90
2021/09/10 01:50:48;;;;;;;15.93;10.73;;;17.20;99.90;;;;;;6215780;23;20029;-90
2021/09/10 01:53:39;;;;;;;13.43;10.43;;;17.20;99.90;;;;;;6195989;23;20316;-89
2021/09/10 01:56:32;;;;;;;13.10;9.97;;;17.20;99.90;;;;;;6195556;23;20025;-91
2021/09/10 01:59:20;;;;;;;11.13;9.75;;;17.20;99.90;;;;;;6215405;23;20036;-89
2021/09/10 02:02:11;;;;;;;13.95;9.90;;;17.30;99.90;;;;;;6195285;23;20024;-90
2021/09/10 02:05:02;;;;;;;11.48;9.40;;;17.30;99.90;;;;;;6195218;23;20028;-89
2021/09/10 02:07:52;;;;;;;13.52;9.88;;;17.40;99.90;;;;;;6176076;23;20029;-92
2021/09/10 02:10:41;;;;;;;11.32;9.70;;;17.40;99.90;;;;;;6216788;23;20379;-88
2021/09/10 02:13:30;;;;;;;11.32;9.60;;;17.40;99.90;;;;;;6218951;23;20039;-89
2021/09/10 02:16:19;;;;;;;11.10;9.85;;;17.50;99.90;;;;;;6216849;23;20028;-91
2021/09/10 02:19:10;;;;;;;15.27;9.45;;;17.50;99.90;;;;;;6216533;23;20442;-91
2021/09/10 02:22:01;;;;;;;13.18;9.10;;;17.50;99.90;;;;;;6196995;23;20070;-90
2021/09/10 02:24:49;;;;;;;10.50;9.25;;;17.40;99.90;;;;;;6198439;23;20029;-91
2021/09/10 02:27:37;;;;;;;13.45;9.75;;;17.40;99.90;;;;;;6217231;23;20442;-91
2021/09/10 02:30:24;;;;;;;12.98;10.18;;;17.30;99.90;;;;;;6176534;23;20020;-90
2021/09/10 02:33:13;;;;;;;11.05;9.90;;;17.30;99.90;;;;;;6196621;23;20036;-92
2021/09/10 02:36:11;;;;;;;13.38;10.20;;;17.20;99.90;;;;;;6214990;23;20020;-91
2021/09/10 02:38:58;;;;;;;12.45;10.35;;;17.10;99.90;;;;;;6218390;22;20065;-91
2021/09/10 02:41:53;;;;;;;11.65;10.38;;;17.10;99.90;;;;;;6210265;23;20047;-91
2021/09/10 02:44:42;;;;;;;13.63;10.35;;;17.00;99.90;;;;;;6212226;23;20033;-90
2021/09/10 02:47:32;;;;;;;13.00;10.20;;;16.90;99.90;;;;;;6229170;23;20071;-91
2021/09/10 02:50:37;;;;;;;14.35;10.32;;;16.90;99.90;;;;;;6219940;23;20032;-90
2021/09/10 02:53:26;;;;;;;15.27;10.52;;;16.70;99.90;;;;;;6229763;23;20020;-91
2021/09/10 02:56:14;;;;;;;14.25;10.95;;;16.60;99.90;;;;;;6197317;23;20016;-89
2021/09/10 02:59:02;;;;;;;17.35;11.57;;;16.60;99.90;;;;;;6232799;23;20020;-92
2021/09/10 03:01:53;;;;;;;13.85;11.40;;;16.50;99.90;;;;;;6239589;23;20028;-90
2021/09/10 03:04:47;;;;;;;16.25;12.18;;;16.50;99.90;;;;;;6231236;23;20026;-90
2021/09/10 03:07:34;;;;;;;;;;;16.40;99.90;;;;;;6214719;23;20083;-89
2021/09/10 03:10:24;;;;;;;14.93;11.35;;;16.30;99.90;;;;;;6210990;23;19928;-90
2021/09/10 03:13:12;;;;;;;15.15;12.15;;;16.30;99.90;;;;;;6201196;23;20052;-88
2021/09/10 03:16:00;;;;;;;16.80;12.43;;;16.20;99.90;;;;;;6221762;23;20101;-91
2021/09/10 03:18:49;;;;;;;18.30;12.93;;;16.20;99.90;;;;;;6216301;23;20028;-92
2021/09/10 03:21:39;;;;;;;17.67;11.90;;;16.20;99.90;;;;;;6193061;23;20094;-92
2021/09/10 03:24:35;;;;;;;18.23;13.10;;;16.20;99.90;;;;;;6195675;23;20040;-89
2021/09/10 03:27:24;;;;;;;17.05;12.43;;;16.10;99.90;;;;;;6198441;23;20040;-92
2021/09/10 03:30:14;;;;;;;14.68;12.13;;;16.10;99.90;;;;;;6194016;23;20036;-89
2021/09/10 03:33:09;;;;;;;14.75;12.82;;;16.00;99.90;;;;;;6216225;23;20035;-90
2021/09/10 03:35:56;;;;;;;18.23;12.82;;;15.90;99.90;;;;;;6195769;23;20021;-89
2021/09/10 03:38:44;;;;;;;19.77;14.30;;;15.90;99.90;;;;;;6192469;23;20415;-92
2021/09/10 03:41:45;;;;;;;22.27;14.18;;;15.80;99.90;;;;;;6215676;23;20029;-91
2021/09/10 03:44:49;;;;;;;16.40;13.15;;;15.80;99.90;;;;;;6217184;23;20418;-91
2021/09/10 03:48:01;;;;;;;17.33;13.40;;;15.60;99.90;;;;;;6081531;23;20401;-90
2021/09/10 03:50:53;;;;;;;18.05;14.73;;;15.50;99.90;;;;;;6079839;23;20026;-91
2021/09/10 03:53:41;;;;;;;17.95;14.25;;;15.30;99.90;;;;;;6057659;23;20026;-91
2021/09/10 03:56:48;;;;;;;18.38;14.32;;;15.30;99.90;;;;;;6076143;23;20023;-90
2021/09/10 03:59:47;;;;;;;18.20;14.60;;;15.20;99.90;;;;;;6095866;23;20154;-91
2021/09/10 04:06:53;;;;;;;17.13;14.85;;;15.10;99.90;;;;;;6059701;23;20014;-91
2021/09/10 04:10:00;;;;;;;22.88;14.65;;;15.00;99.90;;;;;;6095609;23;20085;-90
2021/09/10 04:12:48;;;;;;;17.17;15.25;;;14.90;99.90;;;;;;6093612;23;20026;-90
2021/09/10 04:15:43;;;;;;;16.27;14.50;;;14.90;99.90;;;;;;6074847;23;20037;-92
2021/09/10 04:18:32;;;;;;;22.13;14.93;;;15.00;99.90;;;;;;6130964;23;20035;-91
2021/09/10 04:21:50;;;;;;;19.50;14.95;;;14.90;99.90;;;;;;6180767;23;20032;-91
2021/09/10 04:24:39;;;;;;;19.55;15.13;;;14.90;99.90;;;;;;6212408;23;20028;-91
2021/09/10 04:27:26;;;;;;;21.48;13.32;;;14.90;99.90;;;;;;6214832;23;20030;-91
2021/09/10 04:30:45;;;;;;;17.90;13.88;;;15.00;99.90;;;;;;6217118;23;20028;-91
2021/09/10 04:33:43;;;;;;;15.90;13.05;;;15.10;99.90;;;;;;6184974;23;20104;-90
2021/09/10 04:36:37;;;;;;;20.17;13.30;;;15.10;99.90;;;;;;6177964;23;20487;-93
2021/09/10 04:39:33;;;;;;;17.15;13.60;;;15.00;99.90;;;;;;6207534;23;20021;-90
2021/09/10 04:42:35;;;;;;;15.63;13.48;;;15.00;99.90;;;;;;6192957;23;20108;-88
2021/09/10 04:45:25;;;;;;;16.48;13.93;;;15.00;99.90;;;;;;6207206;23;20048;-90
2021/09/10 04:48:30;;;;;;;15.73;13.43;;;14.90;99.90;;;;;;6215936;22;20043;-90
2021/09/10 04:51:23;;;;;;;16.35;14.05;;;14.90;99.90;;;;;;6209894;23;20040;-90
2021/09/10 04:54:19;;;;;;;20.42;15.00;;;14.80;99.90;;;;;;6222882;23;20364;-89
2021/09/10 04:57:37;;;;;;;17.77;14.30;;;14.80;99.90;;;;;;6217446;23;20107;-89
2021/09/10 05:26:25;;;;;;;18.33;13.80;;;15.00;99.90;;;;;;6124664;23;20096;-90
2021/09/10 05:29:39;;;;;;;15.35;12.55;;;15.20;99.90;;;;;;6125494;23;20065;-90
2021/09/10 05:40:49;;;;;;;14.70;12.02;;;15.70;99.90;;;;;;6187414;23;20281;-89
2021/09/10 05:43:38;;;;;;;17.55;12.02;;;16.00;99.90;;;;;;6187231;23;20262;-90
2021/09/10 05:46:26;;;;;;;14.05;11.68;;;16.10;99.90;;;;;;6169761;23;20108;-89
2021/09/10 05:49:15;;;;;;;15.63;12.00;;;16.30;99.90;;;;;;6169155;23;20021;-92
2021/09/10 05:52:03;;;;;;;15.65;11.85;;;16.50;99.90;;;;;;6163965;23;20025;-90
2021/09/10 05:54:53;;;;;;;15.13;11.23;;;16.60;99.90;;;;;;6186243;23;20312;-92
2021/09/10 05:57:41;;;;;;;16.05;10.93;;;16.80;99.90;;;;;;6165944;23;20107;-91
2021/09/10 06:00:28;;;;;;;15.27;10.63;;;16.90;99.90;;;;;;6187552;23;20393;-88
2021/09/10 06:03:27;;;;;;;12.95;10.85;;;17.10;99.90;;;;;;6167066;23;20048;-90
2021/09/10 06:06:17;;;;;;;16.10;9.82;;;17.30;99.90;;;;;;6149831;23;20116;-90
2021/09/10 06:09:06;;;;;;;19.83;11.25;;;17.60;99.90;;;;;;6166673;23;20080;-90
2021/09/10 06:11:53;;;;;;;14.15;11.02;;;17.80;99.90;;;;;;6186430;23;20452;-90
2021/09/10 06:14:41;;;;;;;13.77;10.30;;;18.00;99.90;;;;;;6146417;23;20058;-89
2021/09/10 06:17:29;;;;;;;14.52;9.98;;;18.10;99.90;;;;;;6144242;23;20021;-85
2021/09/10 06:20:16;;;;;;;14.98;10.27;;;18.10;99.90;;;;;;6149606;23;20048;-90
2021/09/10 06:23:06;;;;;;;11.98;9.88;;;18.00;99.90;;;;;;6150053;23;20029;-87
2021/09/10 06:25:53;;;;;;;11.52;10.00;;;17.90;99.90;;;;;;6191041;23;20037;-88
2021/09/10 06:28:41;;;;;;;12.57;9.88;;;17.90;99.90;;;;;;6154826;23;20040;-90
2021/09/10 06:31:29;;;;;;;11.27;10.18;;;18.10;99.90;;;;;;6151591;23;20028;-90
2021/09/10 06:34:27;;;;;;;12.90;9.63;;;18.20;99.90;;;;;;6204761;23;20025;-91
2021/09/10 06:37:35;;;;;;;17.10;10.95;;;18.30;99.90;;;;;;6108764;23;20441;-91
2021/09/10 06:44:30;;;;;;;13.10;9.32;;;18.80;99.90;;;;;;6107331;23;20094;-90
2021/09/10 06:47:45;;;;;;;;;;;;;;;;;;;;;
2021/09/10 06:55:42;;;;;;;;;;;;;;;;;;;;;
2021/09/10 06:58:59;;;;;;;;;;;;;;;;;;;;;
2021/09/10 07:06:54;;;;;;;;;;;;;;;;;;;;;
2021/09/10 07:09:59;;;;;;;12.60;8.48;;;20.30;99.90;;;;;;6067218;23;20041;-91
2021/09/10 07:13:15;;;;;;;10.48;7.63;;;20.20;99.90;;;;;;6066826;23;20102;-91
2021/09/10 07:17:22;;;;;;;;;;;;;;;;;;;;;
2021/09/10 07:23:54;;;;;;;11.48;8.15;;;20.30;99.90;;;;;;5915877;24;20023;-90
2021/09/10 07:26:56;;;;;;;10.57;8.00;;;20.20;99.90;;;;;;5936223;24;20043;-91
2021/09/10 07:29:54;;;;;;;10.23;7.93;;;20.20;99.90;;;;;;5983938;23;20072;-91
2021/09/10 07:33:21;;;;;;;10.07;7.88;;;20.10;99.90;;;;;;6069884;23;20100;-93
2021/09/10 07:36:22;;;;;;;8.63;7.53;;;20.40;99.90;;;;;;6187611;22;20083;-88
2021/09/10 07:39:18;;;;;;;11.57;7.78;;;20.50;99.90;;;;;;6185226;23;20036;-89
2021/09/10 07:42:30;;;;;;;11.68;8.40;;;20.60;99.90;;;;;;6209312;23;20024;-86
2021/09/10 07:45:20;;;;;;;12.07;8.13;;;20.30;99.90;;;;;;6163701;23;20099;-87
2021/09/10 07:48:15;;;;;;;9.30;8.02;;;20.20;99.90;;;;;;6183423;23;20025;-89
2021/09/10 07:51:05;;;;;;;10.32;7.75;;;20.20;99.90;;;;;;6176478;23;20025;-86
2021/09/10 07:53:52;;;;;;;9.80;7.65;;;20.40;99.90;;;;;;6154161;23;20029;-88
2021/09/10 07:56:50;;;;;;;11.13;7.63;;;20.60;99.90;;;;;;6193130;23;20473;-90
2021/09/10 07:59:42;;;;;;;13.60;7.50;;;20.60;99.90;;;;;;6185285;23;20158;-89
2021/09/10 08:02:37;;;;;;;11.48;7.40;;;20.80;99.90;;;;;;6163805;23;20040;-91
2021/09/10 08:05:27;;;;;;;12.30;7.97;;;20.90;99.90;;;;;;6185481;23;20100;-89
2021/09/10 08:08:24;;;;;;;12.82;7.80;;;20.90;99.90;;;;;;6163925;23;20025;-90
2021/09/10 08:11:33;;;;;;;11.10;7.22;;;21.10;99.90;;;;;;6165884;23;20535;-90
2021/09/10 08:14:30;;;;;;;11.18;7.97;;;21.40;99.90;;;;;;6189570;23;20036;-89
2021/09/10 08:26:18;;;;;;;;;;;;;;;;;;;;;
2021/09/10 08:29:24;;;;;;;12.25;7.57;;;22.20;99.90;;;;;;6172619;23;20412;-94
2021/09/10 08:32:55;;;;;;;8.65;6.43;;;23.10;99.70;;;;;;6096812;23;20026;-92
2021/09/10 08:35:54;;;;;;;12.98;6.03;;;24.30;96.10;;;;;;6097324;23;20054;-93
2021/09/10 08:38:52;;;;;;;7.65;6.47;;;24.10;93.60;;;;;;6096736;23;20121;-92
2021/09/10 08:42:14;;;;;;;;;;;;;;;;;;;;;
2021/09/10 08:45:04;;;;;;;8.27;6.70;;;22.50;97.00;;;;;;6094183;23;20422;-87
2021/09/10 08:47:53;;;;;;;7.63;6.75;;;22.30;97.80;;;;;;6092478;23;20065;-91
2021/09/10 08:50:40;;;;;;;11.48;7.47;;;22.00;98.50;;;;;;6079679;23;20061;-88
2021/09/10 08:53:28;;;;;;;7.95;6.75;;;21.70;98.80;;;;;;6101609;23;20129;-91
2021/09/10 08:56:15;;;;;;;9.65;7.75;;;21.40;99.90;;;;;;6095080;23;20026;-91
2021/09/10 08:59:21;;;;;;;9.50;7.28;;;21.30;99.90;;;;;;6093272;23;20106;-88
2021/09/10 09:02:09;;;;;;;12.75;7.13;;;21.10;99.90;;;;;;6106697;23;20029;-86
2021/09/10 09:04:58;;;;;;;12.65;7.72;;;21.30;99.90;;;;;;6186217;23;20033;-89
2021/09/10 09:07:45;;;;;;;11.55;7.28;;;21.80;99.90;;;;;;6183379;23;20032;-89
2021/09/10 09:11:01;;;;;;;9.57;7.57;;;22.00;99.90;;;;;;6164243;23;20096;-90
2021/09/10 09:13:49;;;;;;;10.25;7.00;;;21.90;99.90;;;;;;6162219;23;20024;-90
2021/09/10 09:17:04;;;;;;;;;;;;;;;;;;;;;
2021/09/10 09:20:24;;;;;;;9.85;7.93;;;21.60;99.90;;;;;;6170542;23;20369;-89
2021/09/10 09:23:12;;;;;;;8.88;7.10;;;21.50;99.90;;;;;;6187065;23;20025;-89
2021/09/10 09:26:13;;;;;;;10.65;7.97;;;21.50;99.90;;;;;;6184888;23;20044;-90
2021/09/10 09:29:09;;;;;;;11.20;7.35;;;21.50;99.90;;;;;;6185922;23;20021;-91
2021/09/10 09:32:01;;;;;;;15.50;7.53;;;21.60;99.90;;;;;;6164524;23;20048;-89
2021/09/10 09:34:50;;;;;;;11.10;7.72;;;21.70;99.90;;;;;;6187076;23;20025;-89
2021/09/10 09:37:41;;;;;;;10.80;8.02;;;21.80;99.90;;;;;;6188052;23;20021;-88
2021/09/10 09:40:33;;;;;;;11.02;7.57;;;21.70;99.90;;;;;;6187236;23;20032;-91
2021/09/10 09:43:24;;;;;;;9.80;7.47;;;21.80;99.90;;;;;;6187463;23;20044;-91
2021/09/10 09:46:24;;;;;;;7.75;6.88;;;22.00;99.90;;;;;;6188266;23;20082;-88
2021/09/10 09:49:13;;;;;;;14.75;7.75;;;22.50;99.70;;;;;;6185283;23;20397;-89
2021/09/10 09:52:02;;;;;;;10.40;7.00;;;23.10;97.80;;;;;;6165988;23;20052;-88
2021/09/10 09:54:50;;;;;;;12.25;7.47;;;23.30;96.20;;;;;;6186227;23;20048;-86
2021/09/10 09:57:40;;;;;;;11.32;7.15;;;23.40;96.20;;;;;;6164519;23;20029;-87
2021/09/10 10:00:29;;;;;;;7.43;6.25;;;24.30;95.40;;;;;;6186020;23;20029;-88
2021/09/10 10:03:19;;;;;;;8.75;6.43;;;25.60;91.20;;;;;;6165599;23;20285;-89
2021/09/10 10:06:25;;;;;;;7.28;6.20;;;26.60;87.50;;;;;;6185551;23;20036;-89
2021/09/10 10:09:19;;;;;;;7.13;6.43;;;27.00;80.40;;;;;;6189470;23;20659;-90
2021/09/10 10:12:15;;;;;;;8.02;6.68;;;26.30;80.50;;;;;;6188632;23;20520;-89
2021/09/10 10:15:25;;;;;;;8.02;6.50;;;26.10;80.20;;;;;;6152319;23;20033;-88
2021/09/10 10:18:36;;;;;;;9.65;6.50;;;25.90;81.80;;;;;;6189451;23;20021;-92
2021/09/10 10:21:57;;;;;;;8.50;6.30;;;25.60;82.50;;;;;;6187233;23;20194;-89
2021/09/10 10:24:56;;;;;;;11.93;7.10;;;25.40;83.10;;;;;;6184897;23;20046;-88
2021/09/10 10:27:46;;;;;;;8.30;7.20;;;25.80;82.70;;;;;;6185571;23;20052;-89
2021/09/10 10:30:37;;;;;;;9.23;6.55;;;25.50;82.70;;;;;;6184761;23;20025;-89
2021/09/10 10:33:29;;;;;;;8.77;6.35;;;25.40;83.00;;;;;;6184245;23;20029;-92
2021/09/10 10:36:36;;;;;;;9.05;6.60;;;25.70;82.10;;;;;;6187267;23;20029;-90
2021/09/10 10:39:30;;;;;;;7.82;5.75;;;26.90;79.40;;;;;;6187276;23;20056;-91
2021/09/10 10:42:50;;;;;;;8.48;6.15;;;28.60;70.10;;;;;;6188766;23;20025;-92
2021/09/10 10:45:46;;;;;;;6.80;5.85;;;28.70;69.20;;;;;;6188932;23;20029;-90
2021/09/10 10:48:34;;;;;;;7.60;6.07;;;28.20;67.20;;;;;;6187929;23;20349;-91
2021/09/10 10:51:23;;;;;;;6.97;5.95;;;27.60;70.80;;;;;;6190171;23;20100;-92
2021/09/10 10:54:14;;;;;;;8.02;6.30;;;28.20;70.10;;;;;;6166730;23;20465;-91
2021/09/10 10:57:27;;;;;;;9.40;6.07;;;28.60;65.50;;;;;;6168600;23;20128;-90
2021/09/10 11:00:33;;;;;;;6.00;5.30;;;28.50;68.50;;;;;;6190131;23;20035;-94
2021/09/10 11:03:21;;;;;;;6.10;5.35;;;28.90;62.70;;;;;;6186496;23;20371;-91
2021/09/10 11:06:28;;;;;;;8.10;5.93;;;29.40;64.80;;;;;;6185315;23;20025;-90
2021/09/10 11:09:17;;;;;;;6.82;5.10;;;29.50;61.70;;;;;;6185234;23;20052;-92
2021/09/10 11:12:05;;;;;;;6.82;5.70;;;29.80;62.60;;;;;;6184449;23;20375;-93
2021/09/10 11:14:53;;;;;;;5.82;5.22;;;30.10;59.00;;;;;;6164739;23;20443;-92
2021/09/10 11:17:42;;;;;;;5.95;5.35;;;29.70;58.40;;;;;;6186890;23;20029;-94
2021/09/10 11:20:29;;;;;;;6.82;5.00;;;29.50;60.00;;;;;;6188326;23;20384;-92
2021/09/10 11:23:28;;;;;;;7.75;5.88;;;29.50;59.50;;;;;;6187330;23;20116;-93
2021/09/10 11:26:15;;;;;;;6.40;5.80;;;29.30;59.80;;;;;;6184709;23;20080;-91
2021/09/10 11:29:09;;;;;;;10.13;6.15;;;29.30;59.70;;;;;;6184944;23;20088;-92
2021/09/10 11:32:17;;;;;;;13.60;6.03;;;28.90;60.50;;;;;;6163965;23;20028;-93
2021/09/10 11:35:20;;;;;;;8.35;6.55;;;28.80;60.50;;;;;;6164455;23;20053;-93
2021/09/10 11:38:13;;;;;;;8.13;6.90;;;28.50;62.20;;;;;;6186971;23;20029;-91
2021/09/10 11:41:05;;;;;;;8.13;5.65;;;28.50;62.10;;;;;;6187821;23;20096;-92
2021/09/10 11:43:52;;;;;;;8.23;6.65;;;28.00;63.80;;;;;;6186733;23;20075;-92
2021/09/10 11:46:40;;;;;;;10.20;6.20;;;27.90;64.80;;;;;;6187888;23;20127;-91
2021/09/10 11:49:31;;;;;;;9.48;6.75;;;28.60;62.80;;;;;;6186589;23;20128;-94
2021/09/10 11:52:37;;;;;;;6.55;5.75;;;28.60;61.90;;;;;;6188227;23;20032;-93
2021/09/10 11:55:24;;;;;;;7.35;6.65;;;28.80;63.10;;;;;;6185941;23;20075;-92
2021/09/10 11:58:12;;;;;;;7.85;6.20;;;28.50;62.00;;;;;;6186828;23;20033;-91
2021/09/10 12:01:22;;;;;;;9.48;5.78;;;28.10;64.40;;;;;;6177987;23;20035;-91
2021/09/10 12:04:34;;;;;;;7.97;5.85;;;27.60;65.80;;;;;;6200351;23;20025;-93
2021/09/10 12:07:29;;;;;;;6.30;5.47;;;28.30;65.40;;;;;;6208624;23;20089;-91
2021/09/10 12:10:34;;;;;;;8.27;6.10;;;29.40;59.30;;;;;;6188130;23;20095;-91
2021/09/10 12:13:21;;;;;;;8.30;6.40;;;28.10;62.00;;;;;;6210798;23;20027;-92
2021/09/10 12:16:15;;;;;;;7.80;6.30;;;26.80;65.30;;;;;;6209499;23;20068;-92
2021/09/10 12:19:03;;;;;;;8.77;6.15;;;26.10;69.40;;;;;;6209350;23;20017;-93
2021/09/10 12:22:31;;;;;;;6.97;6.10;;;25.80;69.90;;;;;;6189811;23;20104;-92
2021/09/10 12:25:22;;;;;;;7.80;6.18;;;25.70;70.90;;;;;;6210277;23;20103;-90
2021/09/10 12:28:11;;;;;;;8.93;5.95;;;25.70;71.50;;;;;;6209129;23;20021;-90
2021/09/10 12:31:10;;;;;;;5.03;4.25;;;26.30;68.80;;;;;;6198901;23;20056;-91
2021/09/10 12:33:57;;;;;;;6.18;4.78;;;26.20;67.90;;;;;;6198422;23;20488;-90
2021/09/10 12:36:46;;;;;;;5.50;4.50;;;26.00;67.40;;;;;;6168507;23;20099;-92
2021/09/10 12:39:33;;;;;;;4.95;4.43;;;25.90;68.00;;;;;;6188221;23;20024;-91
2021/09/10 12:42:21;;;;;;;5.45;4.57;;;25.80;68.80;;;;;;6185237;23;20028;-91
2021/09/10 12:45:09;;;;;;;6.35;4.20;;;26.20;68.50;;;;;;6186505;23;20025;-92
2021/09/10 12:47:56;;;;;;;5.60;4.88;;;26.80;66.70;;;;;;6190962;23;20083;-90
2021/09/10 12:50:43;;;;;;;7.38;4.28;;;27.10;65.40;;;;;;6190812;23;20041;-88
2021/09/10 12:53:32;;;;;;;6.15;4.35;;;27.40;66.00;;;;;;6190298;23;20099;-90
2021/09/10 12:56:23;;;;;;;4.85;3.92;;;27.40;65.40;;;;;;6187252;23;20021;-92
2021/09/10 12:59:13;;;;;;;5.72;3.67;;;27.30;64.80;;;;;;6189386;23;20128;-89
2021/09/10 13:02:02;;;;;;;5.55;4.30;;;26.80;65.60;;;;;;6170374;23;20044;-90
2021/09/10 13:04:50;;;;;;;5.75;4.15;;;26.60;67.90;;;;;;6173278;23;20336;-92
2021/09/10 13:07:37;;;;;;;8.13;3.97;;;26.20;68.60;;;;;;6193100;23;20088;-92
2021/09/10 13:10:24;;;;;;;4.80;4.30;;;25.60;70.70;;;;;;6191330;23;20025;-92
2021/09/10 13:13:11;;;;;;;5.55;4.30;;;25.30;71.90;;;;;;6167967;23;20083;-90
2021/09/10 13:16:03;;;;;;;8.65;4.80;;;25.20;73.70;;;;;;6187732;23;20025;-91
2021/09/10 13:18:51;;;;;;;5.38;4.30;;;25.00;74.70;;;;;;6190194;22;20017;-91
2021/09/10 13:21:39;;;;;;;6.65;4.43;;;24.70;74.50;;;;;;6187149;23;20021;-91
2021/09/10 13:24:26;;;;;;;12.43;4.90;;;24.30;77.00;;;;;;6167659;23;20025;-89
2021/09/10 13:27:16;;;;;;;8.63;5.68;;;24.10;79.30;;;;;;6189849;23;20416;-91
2021/09/10 13:30:09;;;;;;;4.90;4.40;;;23.70;80.20;;;;;;6190106;23;20107;-92
2021/09/10 13:32:59;;;;;;;4.28;3.88;;;23.30;80.00;;;;;;6188880;23;20107;-89
2021/09/10 13:35:46;;;;;;;7.30;4.03;;;23.30;81.20;;;;;;6168335;23;20079;-91
2021/09/10 13:38:36;;;;;;;4.97;4.32;;;23.30;80.90;;;;;;6188777;23;20364;-91
2021/09/10 13:41:23;;;;;;;6.15;4.70;;;23.30;81.00;;;;;;6188526;23;20124;-91
2021/09/10 13:44:11;;;;;;;4.93;4.13;;;23.40;81.40;;;;;;6189200;23;20060;-90
2021/09/10 13:47:05;;;;;;;6.22;4.68;;;23.60;79.90;;;;;;6189559;23;20088;-91
2021/09/10 13:49:55;;;;;;;4.70;4.28;;;23.60;78.60;;;;;;6167296;23;20107;-92
2021/09/10 13:52:45;;;;;;;6.43;4.40;;;23.60;78.80;;;;;;6188721;23;20167;-92
2021/09/10 13:55:32;;;;;;;5.05;4.57;;;23.50;80.20;;;;;;6167153;23;20029;-89
2021/09/10 13:58:21;;;;;;;6.82;4.88;;;23.70;80.00;;;;;;6149325;23;20031;-92
2021/09/10 14:01:08;;;;;;;6.70;4.93;;;23.80;80.00;;;;;;6188327;23;20376;-91
2021/09/10 14:03:58;;;;;;;4.63;3.90;;;23.80;79.20;;;;;;6167924;23;20021;-91
2021/09/10 14:06:46;;;;;;;5.97;4.43;;;23.80;79.10;;;;;;6168475;23;20025;-91
2021/09/10 14:09:33;;;;;;;6.63;4.70;;;23.60;79.80;;;;;;6189207;23;20108;-90
2021/09/10 14:12:22;;;;;;;6.88;4.25;;;23.40;80.80;;;;;;6179159;23;20112;-91
2021/09/10 14:15:10;;;;;;;8.13;4.05;;;23.40;80.60;;;;;;6205077;23;20475;-92
2021/09/10 14:17:57;;;;;;;4.43;3.97;;;23.50;80.10;;;;;;6192534;23;20021;-92
2021/09/10 14:20:44;;;;;;;8.77;4.15;;;23.50;80.80;;;;;;6189035;23;20033;-93
2021/09/10 14:23:37;;;;;;;4.63;3.38;;;23.70;80.00;;;;;;6166919;23;20031;-93
2021/09/10 14:26:24;;;;;;;5.97;4.22;;;23.80;79.40;;;;;;6166044;23;20439;-92
2021/09/10 14:29:14;;;;;;;7.20;4.38;;;23.90;79.10;;;;;;6187740;23;20037;-89
2021/09/10 14:32:02;;;;;;;4.88;4.20;;;24.30;78.80;;;;;;6190107;23;20325;-90
2021/09/10 14:34:49;;;;;;;5.22;3.72;;;24.70;77.30;;;;;;6188195;23;20080;-91
2021/09/10 14:37:38;;;;;;;5.13;3.95;;;25.90;74.60;;;;;;6189281;23;20024;-92
2021/09/10 14:40:31;;;;;;;11.43;4.15;;;26.30;71.00;;;;;;6190861;23;20032;-93
2021/09/10 14:43:18;;;;;;;4.10;2.97;;;26.00;71.70;;;;;;6173841;23;20377;-93
2021/09/10 14:46:08;;;;;;;4.68;3.60;;;25.90;72.20;;;;;;6198035;23;20024;-90
2021/09/10 14:48:55;;;;;;;5.63;3.83;;;26.60;69.20;;;;;;6195081;23;20147;-90
2021/09/10 14:51:42;;;;;;;6.97;4.00;;;26.50;68.40;;;;;;6171263;23;20028;-93
2021/09/10 14:54:32;;;;;;;5.97;4.40;;;26.40;70.30;;;;;;6188834;23;20091;-90
2021/09/10 14:57:21;;;;;;;6.82;3.70;;;25.80;71.50;;;;;;6167233;23;20392;-92
2021/09/10 15:00:11;;;;;;;5.22;4.18;;;24.80;74.90;;;;;;6189088;23;20176;-90
2021/09/10 15:03:03;;;;;;;7.22;4.15;;;24.10;78.50;;;;;;6202584;23;20025;-90
2021/09/10 15:05:58;;;;;;;7.20;4.10;;;23.80;79.70;;;;;;6202012;23;20085;-90
2021/09/10 15:08:45;;;;;;;5.72;4.10;;;23.60;80.50;;;;;;6178496;23;20122;-93
2021/09/10 15:11:34;;;;;;;5.47;4.40;;;23.40;81.40;;;;;;6202224;23;20029;-91
2021/09/10 15:14:21;;;;;;;8.52;4.53;;;23.40;81.50;;;;;;6181391;23;20040;-93
2021/09/10 15:17:11;;;;;;;6.18;4.68;;;23.30;84.30;;;;;;6207204;23;20119;-90
2021/09/10 15:19:59;;;;;;;7.20;4.38;;;23.40;83.20;;;;;;6182489;23;20036;-90
2021/09/10 15:22:50;;;;;;;6.82;4.97;;;23.40;83.60;;;;;;6202872;23;20035;-93
2021/09/10 15:25:37;;;;;;;7.68;5.00;;;23.40;82.30;;;;;;6171262;23;20052;-92
2021/09/10 15:28:28;;;;;;;7.32;5.03;;;23.40;81.90;;;;;;6171896;23;20021;-92
2021/09/10 15:31:15;;;;;;;9.15;5.38;;;23.20;82.10;;;;;;6157379;23;20021;-92
2021/09/10 15:34:06;;;;;;;7.72;5.40;;;23.00;83.70;;;;;;6195032;23;20358;-92
2021/09/10 15:36:53;;;;;;;6.90;5.43;;;23.00;83.70;;;;;;6194591;23;20087;-92
2021/09/10 15:39:41;;;;;;;7.57;6.30;;;23.00;83.20;;;;;;6191650;23;20143;-90
2021/09/10 15:42:29;;;;;;;9.00;5.63;;;22.70;84.30;;;;;;6171263;23;20459;-91
2021/09/10 15:45:16;;;;;;;7.78;5.18;;;22.70;85.20;;;;;;6194152;23;20025;-93
2021/09/10 15:48:03;;;;;;;8.45;5.57;;;22.60;87.00;;;;;;6196011;23;20100;-91
2021/09/10 15:50:50;;;;;;;6.78;6.07;;;22.70;86.80;;;;;;6173845;23;20052;-92
2021/09/10 15:53:38;;;;;;;7.68;6.40;;;22.50;86.60;;;;;;6195783;23;20098;-91
2021/09/10 15:56:32;;;;;;;8.05;6.03;;;22.50;88.80;;;;;;6193209;23;20021;-92
2021/09/10 15:59:21;;;;;;;6.88;6.10;;;22.50;88.00;;;;;;6172940;23;20049;-92
2021/09/10 16:02:09;;;;;;;7.53;6.13;;;22.50;88.30;;;;;;6174259;23;20028;-91
2021/09/10 16:05:02;;;;;;;9.68;6.40;;;22.40;89.60;;;;;;6200831;23;20025;-92
2021/09/10 16:07:49;;;;;;;6.35;5.55;;;22.40;89.40;;;;;;6191594;23;20055;-90